createdAt,value
2018-08-30T00:00:27.288Z,98.68
2018-08-30T00:01:27.387Z,98.77
2018-08-30T00:02:27.484Z,98.10
2018-08-30T00:03:27.582Z,98.29
2018-08-30T00:04:27.679Z,99.06
2018-08-30T00:05:27.779Z,98.49
2018-08-30T00:06:27.872Z,98.19
2018-08-30T00:07:27.974Z,98.00
2018-08-30T00:08:28.071Z,97.52
2018-08-30T00:09:28.160Z,97.14
2018-08-30T00:10:28.265Z,97.24
2018-08-30T00:11:28.363Z,96.94
2018-08-30T00:12:28.460Z,97.52
2018-08-30T00:13:28.557Z,98.10
2018-08-30T00:14:28.653Z,98.00
2018-08-30T00:15:28.750Z,98.19
2018-08-30T00:16:28.850Z,98.10
2018-08-30T00:17:28.946Z,97.81
2018-08-30T00:18:29.044Z,97.62
2018-08-30T00:19:29.141Z,97.72
2018-08-30T00:20:29.238Z,97.81
2018-08-30T00:21:29.335Z,97.52
2018-08-30T00:22:29.440Z,97.62
2018-08-30T00:23:29.534Z,98.19
2018-08-30T00:24:29.632Z,98.87
2018-08-30T00:25:29.740Z,98.68
2018-08-30T00:26:29.835Z,98.58
2018-08-30T00:27:29.936Z,98.58
2018-08-30T00:28:30.034Z,99.16
2018-08-30T00:29:30.130Z,98.68
2018-08-30T00:30:30.228Z,98.68
2018-08-30T00:31:30.330Z,98.87
2018-08-30T00:32:35.667Z,98.97
2018-08-30T00:33:30.533Z,99.06
2018-08-30T00:34:30.630Z,99.06
2018-08-30T00:35:30.727Z,99.16
2018-08-30T00:36:30.827Z,99.06
2018-08-30T00:37:30.928Z,98.97
2018-08-30T00:38:31.023Z,99.26
2018-08-30T00:39:31.120Z,99.16
2018-08-30T00:40:31.218Z,99.06
2018-08-30T00:41:31.532Z,98.68
2018-08-30T00:42:31.417Z,98.68
2018-08-30T00:43:31.513Z,98.58
2018-08-30T00:44:31.611Z,98.49
2018-08-30T00:45:31.710Z,98.58
2018-08-30T00:46:31.805Z,99.16
2018-08-30T00:47:31.897Z,98.49
2018-08-30T00:48:31.998Z,98.00
2018-08-30T00:49:32.092Z,96.94
2018-08-30T00:50:32.191Z,97.62
2018-08-30T00:51:32.290Z,98.10
2018-08-30T00:52:32.390Z,97.62
2018-08-30T00:53:32.486Z,97.33
2018-08-30T00:54:32.585Z,97.24
2018-08-30T00:55:32.683Z,97.72
2018-08-30T00:56:32.781Z,97.81
2018-08-30T00:57:32.880Z,97.52
2018-08-30T00:58:32.978Z,97.33
2018-08-30T00:59:33.091Z,97.04
2018-08-30T01:00:33.188Z,97.42
2018-08-30T01:01:33.289Z,97.33
2018-08-30T01:02:33.384Z,97.52
2018-08-30T01:03:33.488Z,97.14
2018-08-30T01:04:33.590Z,97.52
2018-08-30T01:05:33.686Z,97.62
2018-08-30T01:06:33.782Z,97.72
2018-08-30T01:07:33.882Z,97.81
2018-08-30T01:08:33.974Z,97.62
2018-08-30T01:09:34.072Z,97.81
2018-08-30T01:10:34.166Z,97.62
2018-08-30T01:11:34.271Z,97.62
2018-08-30T01:12:34.369Z,97.72
2018-08-30T01:13:34.463Z,97.42
2018-08-30T01:14:34.568Z,97.14
2018-08-30T01:15:34.667Z,96.94
2018-08-30T01:16:34.767Z,97.24
2018-08-30T01:17:34.866Z,97.42
2018-08-30T01:18:34.964Z,97.24
2018-08-30T01:19:35.065Z,97.33
2018-08-30T01:20:35.157Z,97.24
2018-08-30T01:21:35.255Z,97.33
2018-08-30T01:22:35.355Z,97.24
2018-08-30T01:23:35.454Z,97.14
2018-08-30T01:24:35.549Z,97.04
2018-08-30T01:25:35.646Z,97.33
2018-08-30T01:26:35.750Z,96.75
2018-08-30T01:27:35.846Z,96.03
2018-08-30T01:28:35.944Z,96.08
2018-08-30T01:29:36.031Z,95.79
2018-08-30T01:30:36.147Z,96.46
2018-08-30T01:31:36.246Z,96.08
2018-08-30T01:32:36.344Z,96.75
2018-08-30T01:33:36.461Z,95.60
2018-08-30T01:34:36.565Z,95.79
2018-08-30T01:35:36.659Z,95.98
2018-08-30T01:36:36.757Z,95.60
2018-08-30T01:37:36.857Z,95.50
2018-08-30T01:38:36.954Z,95.60
2018-08-30T01:39:37.053Z,95.79
2018-08-30T01:40:37.153Z,95.40
2018-08-30T01:41:37.249Z,95.98
2018-08-30T01:42:37.348Z,95.60
2018-08-30T01:43:37.444Z,95.69
2018-08-30T01:44:37.540Z,95.98
2018-08-30T01:45:37.640Z,96.08
2018-08-30T01:46:37.737Z,95.79
2018-08-30T01:47:37.834Z,96.27
2018-08-30T01:48:37.931Z,96.75
2018-08-30T01:49:38.026Z,96.70
2018-08-30T01:50:38.128Z,96.85
2018-08-30T01:51:38.223Z,96.56
2018-08-30T01:52:38.318Z,95.98
2018-08-30T01:53:38.420Z,95.60
2018-08-30T01:54:38.516Z,95.60
2018-08-30T01:55:38.618Z,95.98
2018-08-30T01:56:38.718Z,96.42
2018-08-30T01:57:38.817Z,96.80
2018-08-30T01:58:38.912Z,96.51
2018-08-30T01:59:39.015Z,96.61
2018-08-30T02:00:39.140Z,95.55
2018-08-30T02:01:39.229Z,95.55
2018-08-30T02:02:39.324Z,95.74
2018-08-30T02:03:39.426Z,95.45
2018-08-30T02:04:39.523Z,96.03
2018-08-30T02:05:39.617Z,95.84
2018-08-30T02:06:39.713Z,96.22
2018-08-30T02:07:39.815Z,96.32
2018-08-30T02:08:39.911Z,96.61
2018-08-30T02:09:40.010Z,96.32
2018-08-30T02:10:40.107Z,96.22
2018-08-30T02:11:40.205Z,95.74
2018-08-30T02:12:40.302Z,95.94
2018-08-30T02:13:40.403Z,95.55
2018-08-30T02:14:40.501Z,95.55
2018-08-30T02:15:40.593Z,94.87
2018-08-30T02:16:40.696Z,95.65
2018-08-30T02:17:40.792Z,95.07
2018-08-30T02:18:40.891Z,94.20
2018-08-30T02:19:40.991Z,93.72
2018-08-30T02:20:41.093Z,94.40
2018-08-30T02:21:41.189Z,93.82
2018-08-30T02:22:41.284Z,93.38
2018-08-30T02:23:41.385Z,93.53
2018-08-30T02:24:41.490Z,93.05
2018-08-30T02:25:41.585Z,93.24
2018-08-30T02:26:41.683Z,92.38
2018-08-30T02:27:41.780Z,92.47
2018-08-30T02:28:41.879Z,92.57
2018-08-30T02:29:41.979Z,92.38
2018-08-30T02:30:42.080Z,92.38
2018-08-30T02:31:42.172Z,91.89
2018-08-30T02:32:42.281Z,92.08
2018-08-30T02:33:42.375Z,92.38
2018-08-30T02:34:42.474Z,91.99
2018-08-30T02:35:42.570Z,91.51
2018-08-30T02:36:42.670Z,91.13
2018-08-30T02:37:42.768Z,91.41
2018-08-30T02:38:42.864Z,91.80
2018-08-30T02:39:42.965Z,91.80
2018-08-30T02:40:43.060Z,91.46
2018-08-30T02:41:43.179Z,91.08
2018-08-30T02:42:43.278Z,91.08
2018-08-30T02:43:43.374Z,91.56
2018-08-30T02:44:43.471Z,91.27
2018-08-30T02:45:43.570Z,91.75
2018-08-30T02:46:43.663Z,92.04
2018-08-30T02:47:43.761Z,92.04
2018-08-30T02:48:43.859Z,92.04
2018-08-30T02:49:43.955Z,91.46
2018-08-30T02:50:44.053Z,91.75
2018-08-30T02:51:44.153Z,91.85
2018-08-30T02:52:44.247Z,91.08
2018-08-30T02:53:44.344Z,91.46
2018-08-30T02:54:44.441Z,91.08
2018-08-30T02:55:44.532Z,90.98
2018-08-30T02:56:44.627Z,91.56
2018-08-30T02:57:44.725Z,92.57
2018-08-30T02:58:44.822Z,93.05
2018-08-30T02:59:44.919Z,93.24
2018-08-30T03:00:45.017Z,93.15
2018-08-30T03:01:45.116Z,93.91
2018-08-30T03:02:45.214Z,93.53
2018-08-30T03:03:45.310Z,94.30
2018-08-30T03:04:45.413Z,93.73
2018-08-30T03:05:45.510Z,93.63
2018-08-30T03:06:45.605Z,93.53
2018-08-30T03:07:45.701Z,93.34
2018-08-30T03:08:45.797Z,93.91
2018-08-30T03:09:45.893Z,93.63
2018-08-30T03:10:45.995Z,93.24
2018-08-30T03:11:46.091Z,93.15
2018-08-30T03:12:46.190Z,93.63
2018-08-30T03:13:46.289Z,93.73
2018-08-30T03:14:46.390Z,93.63
2018-08-30T03:15:46.476Z,94.21
2018-08-30T03:16:46.574Z,94.78
2018-08-30T03:17:46.674Z,94.78
2018-08-30T03:18:46.771Z,94.30
2018-08-30T03:19:46.873Z,94.26
2018-08-30T03:20:46.967Z,94.11
2018-08-30T03:21:47.065Z,93.73
2018-08-30T03:22:47.160Z,93.63
2018-08-30T03:23:47.257Z,93.44
2018-08-30T03:24:47.353Z,93.68
2018-08-30T03:25:47.450Z,94.45
2018-08-30T03:26:47.547Z,94.83
2018-08-30T03:27:47.645Z,94.35
2018-08-30T03:28:47.762Z,95.12
2018-08-30T03:29:47.859Z,94.35
2018-08-30T03:30:47.997Z,94.73
2018-08-30T03:31:48.051Z,94.64
2018-08-30T03:32:48.151Z,94.73
2018-08-30T03:33:48.247Z,94.83
2018-08-30T03:34:48.345Z,93.96
2018-08-30T03:35:48.443Z,93.73
2018-08-30T03:36:48.538Z,93.63
2018-08-30T03:37:48.635Z,93.44
2018-08-30T03:38:48.731Z,93.05
2018-08-30T03:39:48.827Z,93.05
2018-08-30T03:40:48.928Z,92.76
2018-08-30T03:41:49.025Z,92.67
2018-08-30T03:42:49.129Z,92.29
2018-08-30T03:43:49.219Z,92.09
2018-08-30T03:44:49.315Z,92.29
2018-08-30T03:45:49.413Z,92.29
2018-08-30T03:46:49.538Z,92.09
2018-08-30T03:47:49.604Z,92.67
2018-08-30T03:48:49.704Z,92.86
2018-08-30T03:49:49.802Z,92.29
2018-08-30T03:50:49.905Z,92.67
2018-08-30T03:51:49.994Z,92.96
2018-08-30T03:52:50.095Z,92.96
2018-08-30T03:53:50.188Z,92.57
2018-08-30T03:54:50.287Z,92.47
2018-08-30T03:55:50.388Z,91.99
2018-08-30T03:56:50.479Z,91.80
2018-08-30T03:57:50.578Z,91.22
2018-08-30T03:58:50.674Z,91.99
2018-08-30T03:59:50.773Z,91.90
2018-08-30T04:00:50.869Z,91.61
2018-08-30T04:01:50.969Z,91.71
2018-08-30T04:02:51.058Z,91.90
2018-08-30T04:03:51.165Z,92.09
2018-08-30T04:04:51.262Z,91.80
2018-08-30T04:05:51.360Z,91.80
2018-08-30T04:06:51.458Z,91.99
2018-08-30T04:07:51.553Z,92.09
2018-08-30T04:08:51.652Z,91.52
2018-08-30T04:09:51.786Z,91.99
2018-08-30T04:10:51.846Z,91.99
2018-08-30T04:11:51.946Z,92.47
2018-08-30T04:12:52.041Z,92.09
2018-08-30T04:13:52.137Z,91.52
2018-08-30T04:14:52.236Z,91.80
2018-08-30T04:15:52.335Z,91.61
2018-08-30T04:16:52.433Z,91.80
2018-08-30T04:17:52.532Z,91.61
2018-08-30T04:18:52.628Z,91.90
2018-08-30T04:19:52.729Z,91.42
2018-08-30T04:20:52.826Z,91.71
2018-08-30T04:21:52.992Z,91.42
2018-08-30T04:22:53.022Z,91.99
2018-08-30T04:23:53.115Z,91.71
2018-08-30T04:24:53.241Z,91.71
2018-08-30T04:25:53.314Z,91.22
2018-08-30T04:26:53.425Z,91.22
2018-08-30T04:27:53.508Z,91.71
2018-08-30T04:28:53.608Z,91.32
2018-08-30T04:29:53.703Z,90.94
2018-08-30T04:30:53.802Z,91.61
2018-08-30T04:31:53.903Z,91.52
2018-08-30T04:32:53.997Z,91.03
2018-08-30T04:33:54.094Z,91.03
2018-08-30T04:34:54.190Z,90.94
2018-08-30T04:35:54.288Z,90.22
2018-08-30T04:36:54.388Z,90.22
2018-08-30T04:37:54.485Z,90.22
2018-08-30T04:38:54.583Z,91.08
2018-08-30T04:39:54.678Z,89.93
2018-08-30T04:40:54.778Z,90.12
2018-08-30T04:41:54.879Z,90.41
2018-08-30T04:42:54.971Z,90.12
2018-08-30T04:43:55.070Z,90.31
2018-08-30T04:44:55.167Z,88.97
2018-08-30T04:45:55.261Z,88.59
2018-08-30T04:46:55.361Z,88.68
2018-08-30T04:47:55.459Z,88.39
2018-08-30T04:48:55.555Z,88.49
2018-08-30T04:49:55.653Z,89.36
2018-08-30T04:50:55.750Z,88.87
2018-08-30T04:51:55.846Z,88.97
2018-08-30T04:52:55.944Z,89.26
2018-08-30T04:54:03.313Z,89.16
2018-08-30T04:54:56.123Z,89.07
2018-08-30T04:55:56.220Z,88.59
2018-08-30T04:56:56.320Z,88.49
2018-08-30T04:57:56.417Z,88.68
2018-08-30T04:58:56.555Z,88.97
2018-08-30T04:59:56.612Z,88.10
2018-08-30T05:00:56.709Z,88.10
2018-08-30T05:01:57.186Z,87.92
2018-08-30T05:02:56.882Z,87.62
2018-08-30T05:03:56.982Z,87.39
2018-08-30T05:04:57.075Z,87.34
2018-08-30T05:05:57.170Z,87.15
2018-08-30T05:06:57.268Z,87.29
2018-08-30T05:07:57.366Z,87.87
2018-08-30T05:08:57.464Z,86.62
2018-08-30T05:09:57.577Z,87.39
2018-08-30T05:10:57.654Z,87.77
2018-08-30T05:11:57.752Z,87.96
2018-08-30T05:12:57.849Z,87.96
2018-08-30T05:13:57.946Z,87.96
2018-08-30T05:14:58.046Z,87.39
2018-08-30T05:15:58.153Z,87.68
2018-08-30T05:16:58.248Z,86.95
2018-08-30T05:17:58.345Z,87.62
2018-08-30T05:18:58.446Z,87.10
2018-08-30T05:19:58.540Z,87.19
2018-08-30T05:20:58.638Z,86.85
2018-08-30T05:21:58.738Z,86.95
2018-08-30T05:22:58.867Z,86.95
2018-08-30T05:23:58.931Z,87.15
2018-08-30T05:24:59.029Z,86.81
2018-08-30T05:25:59.125Z,87.01
2018-08-30T05:26:59.222Z,87.15
2018-08-30T05:27:59.320Z,86.52
2018-08-30T05:28:59.417Z,86.81
2018-08-30T05:29:59.508Z,87.39
2018-08-30T05:30:59.604Z,87.87
2018-08-30T05:31:59.698Z,88.06
2018-08-30T05:32:59.796Z,87.29
2018-08-30T05:33:59.897Z,88.79
2018-08-30T05:34:59.993Z,88.98
2018-08-30T05:36:00.083Z,89.26
2018-08-30T05:37:00.192Z,89.55
2018-08-30T05:38:00.290Z,89.02
2018-08-30T05:39:00.386Z,88.64
2018-08-30T05:40:00.484Z,88.64
2018-08-30T05:41:00.586Z,88.54
2018-08-30T05:42:00.685Z,88.16
2018-08-30T05:43:00.803Z,87.87
2018-08-30T05:44:00.900Z,87.68
2018-08-30T05:45:00.999Z,87.82
2018-08-30T05:46:01.104Z,87.05
2018-08-30T05:47:01.195Z,86.81
2018-08-30T05:48:01.289Z,86.91
2018-08-30T05:49:01.388Z,86.76
2018-08-30T05:50:01.486Z,87.10
2018-08-30T05:51:01.583Z,87.01
2018-08-30T05:52:01.682Z,87.49
2018-08-30T05:53:01.779Z,88.06
2018-08-30T05:54:01.878Z,88.25
2018-08-30T05:55:01.976Z,88.06
2018-08-30T05:56:02.072Z,87.49
2018-08-30T05:57:02.247Z,87.87
2018-08-30T05:58:02.260Z,86.72
2018-08-30T05:59:02.361Z,87.01
2018-08-30T06:00:02.456Z,87.01
2018-08-30T06:01:02.554Z,86.72
2018-08-30T06:02:02.648Z,86.57
2018-08-30T06:03:02.745Z,86.62
2018-08-30T06:04:02.843Z,86.18
2018-08-30T06:05:02.942Z,86.66
2018-08-30T06:06:03.039Z,86.47
2018-08-30T06:07:03.134Z,86.18
2018-08-30T06:08:03.231Z,86.66
2018-08-30T06:09:03.329Z,86.38
2018-08-30T06:10:03.447Z,86.43
2018-08-30T06:11:03.544Z,86.18
2018-08-30T06:12:03.649Z,85.80
2018-08-30T06:13:03.773Z,85.61
2018-08-30T06:14:03.845Z,85.32
2018-08-30T06:15:03.941Z,85.51
2018-08-30T06:16:04.041Z,85.28
2018-08-30T06:17:04.162Z,85.47
2018-08-30T06:18:04.256Z,85.85
2018-08-30T06:19:04.353Z,85.57
2018-08-30T06:20:04.455Z,85.37
2018-08-30T06:21:04.554Z,85.28
2018-08-30T06:22:04.652Z,85.57
2018-08-30T06:23:04.748Z,85.85
2018-08-30T06:24:04.848Z,85.47
2018-08-30T06:25:04.944Z,85.37
2018-08-30T06:26:05.053Z,85.37
2018-08-30T06:27:05.149Z,85.37
2018-08-30T06:28:05.247Z,85.47
2018-08-30T06:29:05.355Z,84.70
2018-08-30T06:30:05.446Z,84.36
2018-08-30T06:31:05.582Z,84.41
2018-08-30T06:32:05.668Z,84.41
2018-08-30T06:33:05.767Z,84.41
2018-08-30T06:34:05.885Z,85.08
2018-08-30T06:35:05.961Z,84.89
2018-08-30T06:36:06.055Z,85.24
2018-08-30T06:37:06.149Z,86.48
2018-08-30T06:38:06.251Z,86.00
2018-08-30T06:39:06.346Z,85.04
2018-08-30T06:40:06.439Z,85.71
2018-08-30T06:41:06.541Z,85.42
2018-08-30T06:42:06.640Z,85.42
2018-08-30T06:43:06.736Z,85.81
2018-08-30T06:44:06.840Z,86.05
2018-08-30T06:45:06.930Z,86.29
2018-08-30T06:46:07.025Z,86.00
2018-08-30T06:47:07.122Z,85.91
2018-08-30T06:48:07.220Z,85.81
2018-08-30T06:49:07.374Z,85.42
2018-08-30T06:50:07.421Z,85.52
2018-08-30T06:51:07.520Z,85.04
2018-08-30T06:52:07.617Z,84.95
2018-08-30T06:53:07.714Z,84.85
2018-08-30T06:54:07.812Z,84.66
2018-08-30T06:55:07.918Z,84.56
2018-08-30T06:56:08.012Z,84.47
2018-08-30T06:57:08.105Z,84.37
2018-08-30T06:58:08.226Z,83.80
2018-08-30T06:59:08.328Z,83.74
2018-08-30T07:00:08.431Z,83.45
2018-08-30T07:01:08.529Z,83.93
2018-08-30T07:02:08.627Z,83.36
2018-08-30T07:03:08.726Z,83.26
2018-08-30T07:04:08.877Z,83.07
2018-08-30T07:05:08.936Z,83.16
2018-08-30T07:06:09.031Z,83.16
2018-08-30T07:07:09.131Z,83.74
2018-08-30T07:08:09.236Z,83.07
2018-08-30T07:09:09.328Z,83.26
2018-08-30T07:10:09.424Z,83.78
2018-08-30T07:11:09.521Z,83.16
2018-08-30T07:12:09.624Z,82.78
2018-08-30T07:13:09.720Z,82.68
2018-08-30T07:14:09.820Z,83.16
2018-08-30T07:15:09.915Z,82.87
2018-08-30T07:16:10.009Z,82.97
2018-08-30T07:17:10.109Z,83.07
2018-08-30T07:18:10.205Z,82.78
2018-08-30T07:19:10.298Z,82.68
2018-08-30T07:20:10.407Z,82.78
2018-08-30T07:21:10.536Z,83.16
2018-08-30T07:22:10.605Z,82.78
2018-08-30T07:23:10.707Z,82.63
2018-08-30T07:24:10.811Z,82.97
2018-08-30T07:25:10.900Z,83.07
2018-08-30T07:26:10.994Z,82.59
2018-08-30T07:27:11.092Z,82.78
2018-08-30T07:28:11.188Z,82.68
2018-08-30T07:29:11.285Z,82.59
2018-08-30T07:30:11.383Z,82.30
2018-08-30T07:31:11.483Z,82.97
2018-08-30T07:32:11.580Z,82.78
2018-08-30T07:33:11.684Z,82.73
2018-08-30T07:34:11.786Z,82.87
2018-08-30T07:35:11.930Z,82.59
2018-08-30T07:36:11.977Z,83.26
2018-08-30T07:37:12.073Z,82.87
2018-08-30T07:38:12.170Z,82.49
2018-08-30T07:39:12.295Z,82.30
2018-08-30T07:40:12.392Z,82.87
2018-08-30T07:41:12.490Z,82.78
2018-08-30T07:42:12.593Z,82.87
2018-08-30T07:43:12.688Z,83.16
2018-08-30T07:44:12.877Z,82.68
2018-08-30T07:45:12.886Z,82.59
2018-08-30T07:46:12.999Z,83.16
2018-08-30T07:47:13.120Z,82.78
2018-08-30T07:48:13.194Z,82.78
2018-08-30T07:49:13.297Z,82.40
2018-08-30T07:50:13.395Z,82.40
2018-08-30T07:51:13.492Z,82.59
2018-08-30T07:52:13.591Z,82.63
2018-08-30T07:53:13.690Z,82.15
2018-08-30T07:54:13.788Z,82.24
2018-08-30T07:55:13.883Z,81.86
2018-08-30T07:56:13.983Z,82.05
2018-08-30T07:57:14.083Z,81.43
2018-08-30T07:58:14.177Z,81.72
2018-08-30T07:59:14.275Z,82.01
2018-08-30T08:00:14.375Z,81.82
2018-08-30T08:01:14.468Z,82.10
2018-08-30T08:02:14.566Z,82.15
2018-08-30T08:03:14.668Z,82.05
2018-08-30T08:04:14.765Z,82.15
2018-08-30T08:05:14.858Z,81.48
2018-08-30T08:06:14.954Z,81.76
2018-08-30T08:07:15.098Z,81.38
2018-08-30T08:08:15.147Z,82.05
2018-08-30T08:09:15.243Z,81.96
2018-08-30T08:10:15.346Z,81.67
2018-08-30T08:11:15.438Z,81.67
2018-08-30T08:12:15.538Z,81.57
2018-08-30T08:13:15.648Z,81.38
2018-08-30T08:14:15.742Z,80.71
2018-08-30T08:15:15.841Z,80.90
2018-08-30T08:16:15.939Z,80.04
2018-08-30T08:17:16.040Z,80.32
2018-08-30T08:18:16.133Z,80.04
2018-08-30T08:19:16.232Z,80.27
2018-08-30T08:20:58.451Z,79.30
2018-08-30T08:21:58.564Z,79.69
2018-08-30T08:22:58.672Z,79.02
2018-08-30T08:23:58.759Z,79.98
2018-08-30T08:24:58.855Z,79.21
2018-08-30T08:25:58.954Z,79.30
2018-08-30T08:26:59.051Z,79.40
2018-08-30T08:27:59.147Z,79.30
2018-08-30T08:28:59.243Z,79.60
2018-08-30T08:29:59.344Z,79.02
2018-08-30T08:30:59.446Z,78.83
2018-08-30T08:31:59.539Z,78.92
2018-08-30T08:32:59.636Z,79.50
2018-08-30T08:33:59.735Z,79.11
2018-08-30T08:34:59.831Z,79.40
2018-08-30T08:35:59.925Z,78.73
2018-08-30T08:37:00.024Z,78.83
2018-08-30T08:38:00.117Z,78.67
2018-08-30T08:39:00.214Z,78.86
2018-08-30T08:40:00.313Z,78.19
2018-08-30T08:41:00.410Z,77.61
2018-08-30T08:42:00.507Z,77.71
2018-08-30T08:43:00.606Z,78.19
2018-08-30T08:44:00.702Z,78.19
2018-08-30T08:45:00.800Z,77.61
2018-08-30T08:46:00.894Z,77.42
2018-08-30T08:47:00.991Z,77.61
2018-08-30T08:48:01.091Z,77.61
2018-08-30T08:49:01.188Z,77.90
2018-08-30T08:50:01.285Z,77.71
2018-08-30T08:51:01.401Z,77.90
2018-08-30T08:52:01.479Z,77.81
2018-08-30T08:53:01.575Z,77.46
2018-08-30T08:54:01.673Z,76.98
2018-08-30T08:55:01.771Z,77.08
2018-08-30T08:56:01.870Z,77.26
2018-08-30T08:57:01.966Z,76.73
2018-08-30T08:58:02.062Z,76.34
2018-08-30T08:59:02.304Z,76.06
2018-08-30T09:00:02.258Z,75.67
2018-08-30T09:01:02.356Z,75.48
2018-08-30T09:02:02.456Z,74.22
2018-08-30T09:03:02.551Z,73.97
2018-08-30T09:04:02.646Z,73.74
2018-08-30T09:05:02.746Z,73.26
2018-08-30T09:06:02.842Z,74.03
2018-08-30T09:07:03.119Z,73.94
2018-08-30T09:08:03.037Z,73.84
2018-08-30T09:09:04.010Z,73.84
2018-08-30T09:10:04.009Z,73.94
2018-08-30T09:11:03.285Z,73.65
2018-08-30T09:12:03.383Z,73.84
2018-08-30T09:13:03.479Z,73.36
2018-08-30T09:14:03.579Z,73.16
2018-08-30T09:15:03.680Z,72.59
2018-08-30T09:16:03.774Z,72.68
2018-08-30T09:17:03.861Z,73.16
2018-08-30T09:18:03.960Z,72.59
2018-08-30T09:19:04.052Z,72.39
2018-08-30T09:20:04.148Z,72.39
2018-08-30T09:21:04.258Z,72.88
2018-08-30T09:22:04.359Z,71.81
2018-08-30T09:23:04.481Z,71.85
2018-08-30T09:24:04.556Z,71.66
2018-08-30T09:25:04.653Z,71.95
2018-08-30T09:26:04.751Z,72.24
2018-08-30T09:27:04.882Z,71.85
2018-08-30T09:28:04.950Z,71.66
2018-08-30T09:29:05.047Z,71.56
2018-08-30T09:30:05.147Z,71.95
2018-08-30T09:31:05.288Z,71.08
2018-08-30T09:32:05.349Z,71.08
2018-08-30T09:33:05.451Z,71.66
2018-08-30T09:34:05.554Z,71.02
2018-08-30T09:35:05.651Z,70.64
2018-08-30T09:36:05.738Z,70.54
2018-08-30T09:37:05.828Z,70.44
2018-08-30T09:38:05.928Z,69.96
2018-08-30T09:39:06.028Z,69.57
2018-08-30T09:40:06.128Z,69.67
2018-08-30T09:41:06.227Z,69.48
2018-08-30T09:42:06.326Z,69.67
2018-08-30T09:43:06.425Z,70.19
2018-08-30T09:44:06.524Z,69.42
2018-08-30T09:45:06.621Z,68.93
2018-08-30T09:46:06.710Z,68.84
2018-08-30T09:47:06.812Z,68.45
2018-08-30T09:48:06.918Z,67.78
2018-08-30T09:49:07.017Z,67.58
2018-08-30T09:50:07.112Z,67.58
2018-08-30T09:51:07.220Z,67.78
2018-08-30T09:52:07.317Z,68.07
2018-08-30T09:53:07.417Z,67.68
2018-08-30T09:54:07.514Z,67.88
2018-08-30T09:55:07.613Z,67.68
2018-08-30T09:56:07.734Z,67.40
2018-08-30T09:57:08.053Z,67.71
2018-08-30T09:58:07.933Z,68.13
2018-08-30T09:59:08.029Z,68.80
2018-08-30T10:00:08.127Z,68.90
2018-08-30T10:01:08.228Z,69.13
2018-08-30T10:02:08.330Z,68.65
2018-08-30T10:03:08.437Z,68.55
2018-08-30T10:04:08.534Z,68.74
2018-08-30T10:05:08.633Z,68.84
2018-08-30T10:06:08.735Z,68.04
2018-08-30T10:07:08.838Z,68.52
2018-08-30T10:08:08.936Z,68.71
2018-08-30T10:09:09.018Z,68.45
2018-08-30T10:10:09.132Z,67.88
2018-08-30T10:11:09.232Z,67.30
2018-08-30T10:12:09.339Z,67.40
2018-08-30T10:13:09.432Z,67.36
2018-08-30T10:14:09.528Z,68.13
2018-08-30T10:15:09.628Z,67.74
2018-08-30T10:16:09.731Z,68.52
2018-08-30T10:17:09.834Z,67.74
2018-08-30T10:18:09.928Z,68.42
2018-08-30T10:19:10.027Z,68.23
2018-08-30T10:20:10.126Z,68.80
2018-08-30T10:21:10.224Z,68.71
2018-08-30T10:22:10.324Z,68.58
2018-08-30T10:23:10.423Z,69.48
2018-08-30T10:24:10.521Z,69.06
2018-08-30T10:25:10.619Z,70.21
2018-08-30T10:26:10.725Z,70.21
2018-08-30T10:27:10.820Z,70.21
2018-08-30T10:28:10.946Z,70.31
2018-08-30T10:29:11.053Z,70.41
2018-08-30T10:30:11.141Z,70.12
2018-08-30T10:31:11.235Z,70.98
2018-08-30T10:32:11.336Z,70.70
2018-08-30T10:33:11.433Z,70.70
2018-08-30T10:34:11.535Z,70.79
2018-08-30T10:35:11.626Z,71.08
2018-08-30T10:36:11.725Z,71.08
2018-08-30T10:37:11.829Z,70.79
2018-08-30T10:38:11.925Z,71.08
2018-08-30T10:39:12.023Z,71.56
2018-08-30T10:40:12.123Z,71.22
2018-08-30T10:41:12.219Z,71.12
2018-08-30T10:42:12.323Z,71.70
2018-08-30T10:43:12.428Z,71.22
2018-08-30T10:44:12.525Z,70.44
2018-08-30T10:45:12.626Z,70.44
2018-08-30T10:46:12.728Z,70.54
2018-08-30T10:47:12.824Z,70.73
2018-08-30T10:48:12.922Z,70.44
2018-08-30T10:49:13.020Z,70.73
2018-08-30T10:50:13.118Z,70.25
2018-08-30T10:51:13.238Z,70.83
2018-08-30T10:52:13.342Z,70.09
2018-08-30T10:53:13.439Z,70.19
2018-08-30T10:54:13.534Z,70.15
2018-08-30T10:55:13.637Z,70.15
2018-08-30T10:56:13.773Z,70.25
2018-08-30T10:57:13.837Z,70.44
2018-08-30T10:58:13.966Z,70.35
2018-08-30T10:59:14.054Z,70.64
2018-08-30T11:00:14.150Z,70.44
2018-08-30T11:01:14.246Z,70.73
2018-08-30T11:02:14.343Z,70.64
2018-08-30T11:03:14.444Z,70.35
2018-08-30T11:04:14.553Z,70.64
2018-08-30T11:05:14.646Z,70.54
2018-08-30T11:06:14.738Z,70.35
2018-08-30T11:07:14.835Z,70.44
2018-08-30T11:08:14.934Z,70.35
2018-08-30T11:09:15.094Z,70.35
2018-08-30T11:10:15.133Z,70.06
2018-08-30T11:11:15.243Z,70.25
2018-08-30T11:12:15.318Z,70.41
2018-08-30T11:13:15.435Z,70.92
2018-08-30T11:14:15.519Z,70.54
2018-08-30T11:15:15.619Z,71.12
2018-08-30T11:16:15.718Z,71.70
2018-08-30T11:17:15.816Z,71.60
2018-08-30T11:18:15.916Z,71.89
2018-08-30T11:19:16.021Z,71.60
2018-08-30T11:20:16.109Z,71.60
2018-08-30T11:21:16.207Z,71.28
2018-08-30T11:22:16.307Z,71.47
2018-08-30T11:23:16.412Z,72.53
2018-08-30T11:24:16.507Z,72.91
2018-08-30T11:25:16.603Z,72.91
2018-08-30T11:26:16.705Z,73.78
2018-08-30T11:27:16.800Z,74.61
2018-08-30T11:28:16.903Z,75.67
2018-08-30T11:29:16.999Z,77.15
2018-08-30T11:30:17.099Z,78.11
2018-08-30T11:31:17.198Z,77.83
2018-08-30T11:32:17.315Z,78.40
2018-08-30T11:33:17.413Z,80.04
2018-08-30T11:34:17.513Z,79.56
2018-08-30T11:35:17.610Z,78.94
2018-08-30T11:36:17.704Z,79.27
2018-08-30T11:37:17.804Z,78.79
2018-08-30T11:38:17.900Z,79.17
2018-08-30T11:39:18.000Z,80.04
2018-08-30T11:40:18.097Z,79.08
2018-08-30T11:41:18.239Z,79.56
2018-08-30T11:42:18.333Z,78.79
2018-08-30T11:43:18.470Z,78.65
2018-08-30T11:44:18.490Z,78.40
2018-08-30T11:45:18.590Z,78.31
2018-08-30T11:46:18.687Z,78.02
2018-08-30T11:47:18.788Z,77.44
2018-08-30T11:48:18.884Z,78.21
2018-08-30T11:49:18.983Z,79.36
2018-08-30T11:50:19.080Z,78.50
2018-08-30T11:51:19.176Z,78.31
2018-08-30T11:52:19.301Z,78.11
2018-08-30T11:53:19.370Z,78.31
2018-08-30T11:54:19.541Z,78.69
2018-08-30T11:55:19.563Z,79.46
2018-08-30T11:56:19.707Z,79.46
2018-08-30T11:57:19.781Z,79.66
2018-08-30T11:58:19.864Z,79.85
2018-08-30T11:59:19.958Z,78.88
2018-08-30T12:00:20.056Z,78.50
2018-08-30T12:01:20.159Z,78.31
2018-08-30T12:02:20.256Z,79.27
2018-08-30T12:03:20.348Z,78.69
2018-08-30T12:04:20.449Z,77.83
2018-08-30T12:05:20.546Z,76.67
2018-08-30T12:06:20.647Z,76.28
2018-08-30T12:07:20.742Z,77.34
2018-08-30T12:08:20.876Z,76.32
2018-08-30T12:09:20.936Z,76.71
2018-08-30T12:10:21.171Z,76.42
2018-08-30T12:11:21.230Z,76.17
2018-08-30T12:12:21.233Z,75.78
2018-08-30T12:13:21.336Z,76.07
2018-08-30T12:14:21.433Z,75.59
2018-08-30T12:15:21.532Z,74.57
2018-08-30T12:16:21.631Z,73.41
2018-08-30T12:17:21.728Z,73.41
2018-08-30T12:18:21.826Z,72.73
2018-08-30T12:19:21.930Z,71.86
2018-08-30T12:20:22.049Z,72.44
2018-08-30T12:21:22.122Z,72.63
2018-08-30T12:22:22.221Z,71.96
2018-08-30T12:23:22.320Z,72.83
2018-08-30T12:24:22.419Z,72.63
2018-08-30T12:25:22.519Z,71.96
2018-08-30T12:26:22.618Z,72.44
2018-08-30T12:27:22.717Z,72.15
2018-08-30T12:28:22.919Z,71.67
2018-08-30T12:29:22.926Z,71.67
2018-08-30T12:30:23.048Z,71.77
2018-08-30T12:31:23.137Z,73.11
2018-08-30T12:32:23.247Z,71.96
2018-08-30T12:33:23.384Z,71.96
2018-08-30T12:34:23.467Z,72.31
2018-08-30T12:35:23.605Z,73.18
2018-08-30T12:36:23.684Z,73.08
2018-08-30T12:37:23.719Z,72.79
2018-08-30T12:38:23.818Z,72.06
2018-08-30T12:39:23.926Z,71.48
2018-08-30T12:40:24.116Z,71.86
2018-08-30T12:41:24.159Z,71.96
2018-08-30T12:42:24.274Z,72.00
2018-08-30T12:43:24.423Z,72.00
2018-08-30T12:44:24.452Z,71.22
2018-08-30T12:45:24.568Z,68.81
2018-08-30T12:46:24.671Z,67.91
2018-08-30T12:47:24.736Z,68.43
2018-08-30T12:48:24.884Z,68.62
2018-08-30T12:49:24.985Z,67.55
2018-08-30T12:50:25.142Z,68.43
2018-08-30T12:51:25.305Z,66.97
2018-08-30T12:52:25.329Z,65.95
2018-08-30T12:53:25.335Z,64.98
2018-08-30T12:54:25.605Z,64.21